Ali Cat — MZCL8 — position and weather

sailwx.info

Track history (hours):
 
Tides and Currents Weather Stations Pressure Air Temp Water Temp Dewpoint Dewpoint Depression Visibility Wind Speed Wind Dir Waves Ship Positions

Ali Cat

Operator: MRCC Clyde

Last reported at 2018-Jun-22 08:34 UTC. Time now 2018-Jun-22 08:58 UTC.
Position N 55°57' W 004°51'.

Length 19 m.

Type: Passenger vessel. MMSI: 235056506.

Date/timePositionNaut miles runAvg speedWind from/ knotsBaromVisibWave heightAir tempDewpointWater temp
2018-Jun-22 08:34N 55°57' W 004°51'110.2
2018-Jun-22 08:28N 55°57' W 004°53'2 1.9
2018-Jun-22 07:37N 55°58' W 004°50'210.1
2018-Jun-22 07:27N 55°57' W 004°53'2 1.8
2018-Jun-22 06:32N 55°58' W 004°50'210.1
2018-Jun-22 06:22N 55°57' W 004°53'1 0.1
2018-Jun-21 20:51N 55°57' W 004°52'0 0.2
2018-Jun-21 19:33N 55°57' W 004°52'110.4
2018-Jun-21 19:27N 55°57' W 004°53'2 1.8
2018-Jun-21 18:36N 55°58' W 004°51'110.5
2018-Jun-21 18:29N 55°57' W 004°53'1 1.3
2018-Jun-21 17:35N 55°58' W 004°51'210.6
2018-Jun-21 17:25N 55°57' W 004°54'1 0.9
2018-Jun-21 16:30N 55°57' W 004°52'1 0.6
2018-Jun-21 15:26N 55°57' W 004°54'1 0.2
2018-Jun-21 11:31N 55°57' W 004°52'0 0.1
2018-Jun-21 10:31N 55°57' W 004°52'110.1
2018-Jun-21 10:28N 55°57' W 004°53'2 3.0
2018-Jun-21 09:41N 55°58' W 004°49'210.0
2018-Jun-21 09:30N 55°57' W 004°52'1 1.0
2018-Jun-21 08:36N 55°57' W 004°51'110.4
2018-Jun-21 08:30N 55°57' W 004°52'1 1.9
2018-Jun-21 07:58N 55°58' W 004°51'1 2.8
2018-Jun-21 07:29N 55°57' W 004°53'1 1.2
2018-Jun-21 06:31N 55°57' W 004°51'110.2
2018-Jun-21 06:27N 55°57' W 004°52'1 0.1
2018-Jun-20 22:23N 55°57' W 004°51'1 0.6
2018-Jun-20 21:20N 55°57' W 004°52'0 0.1
2018-Jun-20 19:31N 55°57' W 004°52'1 0.7
2018-Jun-20 18:38N 55°57' W 004°51'2 9.1
2018-Jun-20 18:26N 55°57' W 004°54'0 0.1
2018-Jun-20 17:23N 55°57' W 004°54'1 1.3
2018-Jun-20 16:30N 55°57' W 004°52'2 0.3
2018-Jun-20 11:39N 55°58' W 004°50'210.4
2018-Jun-20 11:29N 55°57' W 004°53'1 0.7
2018-Jun-20 10:34N 55°57' W 004°52'110.0
2018-Jun-20 10:30N 55°57' W 004°53'1 0.8
2018-Jun-20 09:35N 55°57' W 004°51'1 9.8
2018-Jun-20 09:28N 55°57' W 004°53'1 1.5
2018-Jun-20 08:36N 55°57' W 004°51'1 9.9
2018-Jun-20 08:28N 55°57' W 004°53'1 2.6
2018-Jun-20 07:59N 55°58' W 004°51'1 2.0
2018-Jun-20 07:29N 55°57' W 004°53'1 1.5
2018-Jun-20 06:35N 55°58' W 004°50'1 9.9
2018-Jun-20 06:29N 55°57' W 004°52'1 0.1
2018-Jun-19 20:55N 55°58' W 004°51'1 0.4
2018-Jun-19 19:32N 55°57' W 004°52'110.2
2018-Jun-19 19:26N 55°57' W 004°54'1 0.8
2018-Jun-19 18:15N 55°57' W 004°55'3 3.7
2018-Jun-19 17:35N 55°58' W 004°51'211.0
2018-Jun-19 17:25N 55°57' W 004°54'1 1.4
2018-Jun-19 16:31N 55°57' W 004°52'111.3
2018-Jun-19 16:28N 55°57' W 004°53'1 1.3
2018-Jun-19 15:34N 55°58' W 004°51'0 0.1
2018-Jun-19 14:04N 55°58' W 004°51'111.1
2018-Jun-19 14:00N 55°57' W 004°53'0 0.2
2018-Jun-19 13:02N 55°57' W 004°52'111.1
2018-Jun-19 12:57N 55°57' W 004°54'2 0.7
2018-Jun-19 10:35N 55°58' W 004°51'111.0
2018-Jun-19 10:29N 55°57' W 004°53'0 0.3
2018-Jun-19 09:31N 55°57' W 004°52'110.5
2018-Jun-19 09:26N 55°57' W 004°54'0 0.4
2018-Jun-19 08:27N 55°57' W 004°53'2 1.9
2018-Jun-19 07:37N 55°58' W 004°50'110.6
2018-Jun-19 07:30N 55°57' W 004°52'1 1.5
2018-Jun-19 06:33N 55°58' W 004°50'110.6
2018-Jun-19 06:28N 55°57' W 004°52'1 0.1
2018-Jun-18 20:49N 55°57' W 004°53'0 0.2
2018-Jun-18 19:30N 55°57' W 004°52'1 0.7
2018-Jun-18 18:34N 55°57' W 004°51'110.6
2018-Jun-18 18:30N 55°57' W 004°52'1 0.9
2018-Jun-18 17:36N 55°58' W 004°51'2 1.4
2018-Jun-18 16:25N 55°57' W 004°54'1 0.7
2018-Jun-18 15:29N 55°57' W 004°53'1 0.5
2018-Jun-18 14:04N 55°57' W 004°52'111.2
2018-Jun-18 14:00N 55°57' W 004°53'1 0.9
2018-Jun-18 13:03N 55°58' W 004°51'111.2
2018-Jun-18 13:00N 55°57' W 004°53'0 0.1
2018-Jun-18 10:00N 55°57' W 004°52'0 0.1
2018-Jun-18 09:01N 55°57' W 004°52'210.8
2018-Jun-18 08:52N 55°57' W 004°55'2 5.8
2018-Jun-18 08:31N 55°58' W 004°52'1 2.5
2018-Jun-18 07:56N 55°57' W 004°54'2 3.6
2018-Jun-18 07:30N 55°58' W 004°52'1 1.8
2018-Jun-18 06:59N 55°57' W 004°53'0 0.1
2018-Jun-18 05:54N 55°57' W 004°53'1 1.9
2018-Jun-18 05:30N 55°58' W 004°52'1 0.2
2018-Jun-17 22:08N 55°58' W 004°49'212.0
2018-Jun-17 22:00N 55°57' W 004°52'0 0.4
2018-Jun-17 21:00N 55°57' W 004°53'1 0.9
2018-Jun-17 20:04N 55°57' W 004°51'111.3
2018-Jun-17 20:00N 55°57' W 004°53'2 3.6
2018-Jun-17 19:22N 55°58' W 004°49'3 6.7
2018-Jun-17 18:56N 55°57' W 004°54'0 0.2
2018-Jun-17 16:54N 55°57' W 004°55'2 5.0
2018-Jun-17 16:30N 55°58' W 004°52'2 3.1
2018-Jun-17 15:54N 55°57' W 004°54'2 5.1
2018-Jun-17 15:28N 55°58' W 004°51'2 3.6
2018-Jun-17 14:58N 55°57' W 004°53'1 3.1
2018-Jun-17 14:30N 55°58' W 004°51'2 3.0
2018-Jun-17 13:55N 55°57' W 004°54'3 4.0
2018-Jun-17 13:12N 55°58' W 004°49'310.4
2018-Jun-17 12:55N 55°57' W 004°54'1 0.2
2018-Jun-17 08:59N 55°57' W 004°53'0 0.2
2018-Jun-17 07:59N 55°57' W 004°53'1 0.1
2018-Jun-17 00:44N 55°58' W 004°52'2 6.2
2018-Jun-17 00:23N 55°57' W 004°55'3 2.8
2018-Jun-16 23:26N 55°58' W 004°51'1 0.1
2018-Jun-16 18:33N 55°57' W 004°51'210.4
2018-Jun-16 18:22N 55°57' W 004°55'1 0.6
2018-Jun-16 17:26N 55°57' W 004°54'1 0.7
2018-Jun-16 15:33N 55°57' W 004°52'1 0.2
2018-Jun-16 10:25N 55°57' W 004°54'1 0.1
2018-Jun-15 17:31N 55°57' W 004°52'110.5
2018-Jun-15 17:25N 55°57' W 004°54'2 3.2
2018-Jun-15 16:39N 55°58' W 004°50'0 0.0
2018-Jun-15 11:39N 55°58' W 004°49'2 1.4
2018-Jun-15 10:30N 55°57' W 004°52'1 0.3
2018-Jun-15 06:21N 55°57' W 004°54'1 0.2
2018-Jun-14 20:54N 55°57' W 004°52'1 0.5
2018-Jun-14 19:36N 55°58' W 004°51'2 0.1
2018-Jun-13 17:27N 55°57' W 004°54'1 1.3
2018-Jun-13 16:33N 55°58' W 004°52'110.7
2018-Jun-13 16:28N 55°57' W 004°53'0 0.0
2018-Jun-13 08:29N 55°57' W 004°53'1 0.1
2018-Jun-12 20:55N 55°58' W 004°51'2 0.4
2018-Jun-12 16:25N 55°57' W 004°54'1 1.7
2018-Jun-12 15:34N 55°57' W 004°52'110.1
2018-Jun-12 15:27N 55°57' W 004°54'1 0.4
2018-Jun-12 11:34N 55°57' W 004°51'210.7
2018-Jun-12 11:23N 55°57' W 004°55'3 3.8
2018-Jun-12 10:39N 55°58' W 004°50'210.6
2018-Jun-12 10:29N 55°57' W 004°53'2 2.0
2018-Jun-12 09:37N 55°58' W 004°50'110.9
2018-Jun-12 09:30N 55°57' W 004°52'1 0.7
2018-Jun-12 08:35N 55°58' W 004°51'  
Track history (hours):
 
Tides and Currents Weather Stations Pressure Air Temp Water Temp Dewpoint Dewpoint Depression Visibility Wind Speed Wind Dir Waves Ship Positions

Ali Cat

Operator: MRCC Clyde

Last reported at 2018-Jun-22 08:34 UTC. Time now 2018-Jun-22 08:58 UTC.
Position N 55°57' W 004°51'.

Length 19 m.

Type: Passenger vessel. MMSI: 235056506.

Date/timePositionNaut miles runAvg speedWind from/ knotsBaromVisibWave heightAir tempDewpointWater temp
2018-Jun-22 08:34N 55°57' W 004°51'110.2
2018-Jun-22 08:28N 55°57' W 004°53'2 1.9
2018-Jun-22 07:37N 55°58' W 004°50'210.1
2018-Jun-22 07:27N 55°57' W 004°53'2 1.8
2018-Jun-22 06:32N 55°58' W 004°50'210.1
2018-Jun-22 06:22N 55°57' W 004°53'1 0.1
2018-Jun-21 20:51N 55°57' W 004°52'0 0.2
2018-Jun-21 19:33N 55°57' W 004°52'110.4
2018-Jun-21 19:27N 55°57' W 004°53'2 1.8
2018-Jun-21 18:36N 55°58' W 004°51'110.5
2018-Jun-21 18:29N 55°57' W 004°53'1 1.3
2018-Jun-21 17:35N 55°58' W 004°51'210.6
2018-Jun-21 17:25N 55°57' W 004°54'1 0.9
2018-Jun-21 16:30N 55°57' W 004°52'1 0.6
2018-Jun-21 15:26N 55°57' W 004°54'1 0.2
2018-Jun-21 11:31N 55°57' W 004°52'0 0.1
2018-Jun-21 10:31N 55°57' W 004°52'110.1
2018-Jun-21 10:28N 55°57' W 004°53'2 3.0
2018-Jun-21 09:41N 55°58' W 004°49'210.0
2018-Jun-21 09:30N 55°57' W 004°52'1 1.0
2018-Jun-21 08:36N 55°57' W 004°51'110.4
2018-Jun-21 08:30N 55°57' W 004°52'1 1.9
2018-Jun-21 07:58N 55°58' W 004°51'1 2.8
2018-Jun-21 07:29N 55°57' W 004°53'1 1.2
2018-Jun-21 06:31N 55°57' W 004°51'110.2
2018-Jun-21 06:27N 55°57' W 004°52'1 0.1
2018-Jun-20 22:23N 55°57' W 004°51'1 0.6
2018-Jun-20 21:20N 55°57' W 004°52'0 0.1
2018-Jun-20 19:31N 55°57' W 004°52'1 0.7
2018-Jun-20 18:38N 55°57' W 004°51'2 9.1
2018-Jun-20 18:26N 55°57' W 004°54'0 0.1
2018-Jun-20 17:23N 55°57' W 004°54'1 1.3
2018-Jun-20 16:30N 55°57' W 004°52'2 0.3
2018-Jun-20 11:39N 55°58' W 004°50'210.4
2018-Jun-20 11:29N 55°57' W 004°53'1 0.7
2018-Jun-20 10:34N 55°57' W 004°52'110.0
2018-Jun-20 10:30N 55°57' W 004°53'1 0.8
2018-Jun-20 09:35N 55°57' W 004°51'1 9.8
2018-Jun-20 09:28N 55°57' W 004°53'1 1.5
2018-Jun-20 08:36N 55°57' W 004°51'1 9.9
2018-Jun-20 08:28N 55°57' W 004°53'1 2.6
2018-Jun-20 07:59N 55°58' W 004°51'1 2.0
2018-Jun-20 07:29N 55°57' W 004°53'1 1.5
2018-Jun-20 06:35N 55°58' W 004°50'1 9.9
2018-Jun-20 06:29N 55°57' W 004°52'1 0.1
2018-Jun-19 20:55N 55°58' W 004°51'1 0.4
2018-Jun-19 19:32N 55°57' W 004°52'110.2
2018-Jun-19 19:26N 55°57' W 004°54'1 0.8
2018-Jun-19 18:15N 55°57' W 004°55'3 3.7
2018-Jun-19 17:35N 55°58' W 004°51'211.0
2018-Jun-19 17:25N 55°57' W 004°54'1 1.4
2018-Jun-19 16:31N 55°57' W 004°52'111.3
2018-Jun-19 16:28N 55°57' W 004°53'1 1.3
2018-Jun-19 15:34N 55°58' W 004°51'0 0.1
2018-Jun-19 14:04N 55°58' W 004°51'111.1
2018-Jun-19 14:00N 55°57' W 004°53'0 0.2
2018-Jun-19 13:02N 55°57' W 004°52'111.1
2018-Jun-19 12:57N 55°57' W 004°54'2 0.7
2018-Jun-19 10:35N 55°58' W 004°51'111.0
2018-Jun-19 10:29N 55°57' W 004°53'0 0.3
2018-Jun-19 09:31N 55°57' W 004°52'110.5
2018-Jun-19 09:26N 55°57' W 004°54'0 0.4
2018-Jun-19 08:27N 55°57' W 004°53'2 1.9
2018-Jun-19 07:37N 55°58' W 004°50'110.6
2018-Jun-19 07:30N 55°57' W 004°52'1 1.5
2018-Jun-19 06:33N 55°58' W 004°50'110.6
2018-Jun-19 06:28N 55°57' W 004°52'1 0.1
2018-Jun-18 20:49N 55°57' W 004°53'0 0.2
2018-Jun-18 19:30N 55°57' W 004°52'1 0.7
2018-Jun-18 18:34N 55°57' W 004°51'110.6
2018-Jun-18 18:30N 55°57' W 004°52'1 0.9
2018-Jun-18 17:36N 55°58' W 004°51'2 1.4
2018-Jun-18 16:25N 55°57' W 004°54'1 0.7
2018-Jun-18 15:29N 55°57' W 004°53'1 0.5
2018-Jun-18 14:04N 55°57' W 004°52'111.2
2018-Jun-18 14:00N 55°57' W 004°53'1 0.9
2018-Jun-18 13:03N 55°58' W 004°51'111.2
2018-Jun-18 13:00N 55°57' W 004°53'0 0.1
2018-Jun-18 10:00N 55°57' W 004°52'0 0.1
2018-Jun-18 09:01N 55°57' W 004°52'210.8
2018-Jun-18 08:52N 55°57' W 004°55'2 5.8
2018-Jun-18 08:31N 55°58' W 004°52'1 2.5
2018-Jun-18 07:56N 55°57' W 004°54'2 3.6
2018-Jun-18 07:30N 55°58' W 004°52'1 1.8
2018-Jun-18 06:59N 55°57' W 004°53'0 0.1
2018-Jun-18 05:54N 55°57' W 004°53'1 1.9
2018-Jun-18 05:30N 55°58' W 004°52'1 0.2
2018-Jun-17 22:08N 55°58' W 004°49'212.0
2018-Jun-17 22:00N 55°57' W 004°52'0 0.4
2018-Jun-17 21:00N 55°57' W 004°53'1 0.9
2018-Jun-17 20:04N 55°57' W 004°51'111.3
2018-Jun-17 20:00N 55°57' W 004°53'2 3.6
2018-Jun-17 19:22N 55°58' W 004°49'3 6.7
2018-Jun-17 18:56N 55°57' W 004°54'0 0.2
2018-Jun-17 16:54N 55°57' W 004°55'2 5.0
2018-Jun-17 16:30N 55°58' W 004°52'2 3.1
2018-Jun-17 15:54N 55°57' W 004°54'2 5.1
2018-Jun-17 15:28N 55°58' W 004°51'2 3.6
2018-Jun-17 14:58N 55°57' W 004°53'1 3.1
2018-Jun-17 14:30N 55°58' W 004°51'2 3.0
2018-Jun-17 13:55N 55°57' W 004°54'3 4.0
2018-Jun-17 13:12N 55°58' W 004°49'310.4
2018-Jun-17 12:55N 55°57' W 004°54'1 0.2
2018-Jun-17 08:59N 55°57' W 004°53'0 0.2
2018-Jun-17 07:59N 55°57' W 004°53'1 0.1
2018-Jun-17 00:44N 55°58' W 004°52'2 6.2
2018-Jun-17 00:23N 55°57' W 004°55'3 2.8
2018-Jun-16 23:26N 55°58' W 004°51'1 0.1
2018-Jun-16 18:33N 55°57' W 004°51'210.4
2018-Jun-16 18:22N 55°57' W 004°55'1 0.6
2018-Jun-16 17:26N 55°57' W 004°54'1 0.7
2018-Jun-16 15:33N 55°57' W 004°52'1 0.2
2018-Jun-16 10:25N 55°57' W 004°54'1 0.1
2018-Jun-15 17:31N 55°57' W 004°52'110.5
2018-Jun-15 17:25N 55°57' W 004°54'2 3.2
2018-Jun-15 16:39N 55°58' W 004°50'0 0.0
2018-Jun-15 11:39N 55°58' W 004°49'2 1.4
2018-Jun-15 10:30N 55°57' W 004°52'1 0.3
2018-Jun-15 06:21N 55°57' W 004°54'1 0.2
2018-Jun-14 20:54N 55°57' W 004°52'1 0.5
2018-Jun-14 19:36N 55°58' W 004°51'2 0.1
2018-Jun-13 17:27N 55°57' W 004°54'1 1.3
2018-Jun-13 16:33N 55°58' W 004°52'110.7
2018-Jun-13 16:28N 55°57' W 004°53'0 0.0
2018-Jun-13 08:29N 55°57' W 004°53'1 0.1
2018-Jun-12 20:55N 55°58' W 004°51'2 0.4
2018-Jun-12 16:25N 55°57' W 004°54'1 1.7
2018-Jun-12 15:34N 55°57' W 004°52'110.1
2018-Jun-12 15:27N 55°57' W 004°54'1 0.4
2018-Jun-12 11:34N 55°57' W 004°51'210.7
2018-Jun-12 11:23N 55°57' W 004°55'3 3.8
2018-Jun-12 10:39N 55°58' W 004°50'210.6
2018-Jun-12 10:29N 55°57' W 004°53'2 2.0
2018-Jun-12 09:37N 55°58' W 004°50'110.9
2018-Jun-12 09:30N 55°57' W 004°52'1 0.7
2018-Jun-12 08:35N 55°58' W 004°51'  

Dump ship's entire track history